Jack Robertson — WDE5993 — position and weather

sailwx.info

Track history (hours):
 
Tides and Currents Weather Stations Pressure Air Temp Water Temp Dewpoint Dewpoint Depression Visibility Wind Speed Wind Dir Waves Ship Positions

Oceanographic research ship Jack Robertson (United States)

Owner: University of Washington Applied Physics Laboratory, Seattle, WA. More information available from US FCC via Universal Licensing System and Coast Guard Vessel Documentation Center.

Last reported at 2017-May-27 09:48 UTC. Time now 2017-May-27 17:33 UTC.
Position N 47°39' W 122°19'.

; draft 1.7 m.

Type: Other ship. MMSI: 367374350.

Date/timePositionNaut miles runAvg speedWind from/ knotsBaromVisibWave heightAir tempDewpointWater temp
2017-May-27 09:48N 47°39' W 122°19'1 2.2
2017-May-27 09:30N 47°39' W 122°20'3 5.9
2017-May-27 09:00N 47°40' W 122°24'3 6.6
2017-May-27 08:30N 47°43' W 122°26'4 8.5
2017-May-27 08:00N 47°47' W 122°28'4 8.3
2017-May-27 07:30N 47°51' W 122°29'4 8.2
2017-May-27 07:00N 47°55' W 122°31'4 7.3
2017-May-27 06:29N 47°57' W 122°36'9 7.5
2017-May-27 05:19N 48°06' W 122°41'2 5.8
2017-May-27 04:57N 48°07' W 122°43'4 8.3
2017-May-27 04:25N 48°09' W 122°49'10 2.9
2017-May-27 00:58N 48°04' W 123°02'1 1.7
2017-May-27 00:28N 48°04' W 123°01'1 1.6
2017-May-26 23:59N 48°05' W 123°02'1 1.3
2017-May-26 23:21N 48°04' W 123°02'0 0.4
2017-May-26 22:57N 48°04' W 123°02'1 2.5
2017-May-26 22:29N 48°04' W 123°01'1 1.0
2017-May-26 22:00N 48°04' W 123°01'0 0.5
2017-May-26 21:30N 48°04' W 123°01'0 0.6
2017-May-26 21:00N 48°04' W 123°01'0 0.8
2017-May-26 20:31N 48°04' W 123°01'0 0.6
2017-May-26 20:00N 48°04' W 123°01'0 0.6
2017-May-26 19:30N 48°05' W 123°02'0 0.3
2017-May-26 19:00N 48°05' W 123°02'0 0.6
2017-May-26 18:30N 48°04' W 123°02'0 0.6
2017-May-26 17:59N 48°04' W 123°02'0 0.9
2017-May-26 17:30N 48°04' W 123°02'1 1.0
2017-May-26 17:00N 48°03' W 123°02'1 1.2
2017-May-26 16:30N 48°03' W 123°01'0 0.8
2017-May-26 16:00N 48°03' W 123°01'1 2.6
2017-May-26 15:30N 48°04' W 123°02'0 0.8
2017-May-26 15:00N 48°04' W 123°02'0 0.3
2017-May-26 14:30N 48°04' W 123°02'0 0.0
2017-May-26 01:42N 48°04' W 123°02'1 3.1
2017-May-26 01:30N 48°04' W 123°02'1 1.1
2017-May-26 01:00N 48°04' W 123°01'0 1.0
2017-May-26 00:30N 48°04' W 123°01'2 2.9
2017-May-25 23:59N 48°03' W 123°01'0 0.7
2017-May-25 23:30N 48°03' W 123°01'0 0.1
2017-May-25 23:00N 48°03' W 123°01'0 0.5
2017-May-25 22:22N 48°04' W 123°01'0 0.9
2017-May-25 22:00N 48°04' W 123°01'0 0.8
2017-May-25 21:30N 48°04' W 123°01'0 0.7
2017-May-25 20:59N 48°04' W 123°02'0 0.9
2017-May-25 20:30N 48°04' W 123°02'0 0.1
2017-May-25 20:00N 48°04' W 123°02'0 0.7
2017-May-25 19:30N 48°04' W 123°02'0 0.4
2017-May-25 18:53N 48°04' W 123°01'0 1.1
2017-May-25 18:29N 48°04' W 123°02'0 1.0
2017-May-25 17:59N 48°05' W 123°02'2 4.1
2017-May-25 17:31N 48°03' W 123°01'0 0.4
2017-May-25 17:01N 48°03' W 123°01'0 0.9
2017-May-25 16:30N 48°03' W 123°02'0 0.9
2017-May-25 16:00N 48°03' W 123°02'0 0.4
2017-May-25 15:30N 48°03' W 123°01'0 0.0
2017-May-25 15:00N 48°03' W 123°01'0 0.3
2017-May-25 14:30N 48°03' W 123°01'1 0.1
2017-May-25 04:23N 48°04' W 123°02'1 2.3
2017-May-25 04:00N 48°03' W 123°02'1 1.0
2017-May-25 03:28N 48°04' W 123°02'0 0.1
2017-May-25 02:58N 48°04' W 123°02'0 0.6
2017-May-25 02:28N 48°03' W 123°02'1 2.2
2017-May-25 02:00N 48°03' W 123°01'1 2.4
2017-May-25 01:30N 48°04' W 123°01'1 0.2
2017-May-24 20:33N 48°04' W 123°02'0 0.0
2017-May-24 18:24N 48°04' W 123°02'0 0.1
2017-May-24 18:00N 48°04' W 123°02'1 1.8
2017-May-24 17:30N 48°05' W 123°01'0 0.0
2017-May-24 17:00N 48°05' W 123°01'0 0.0
2017-May-24 16:30N 48°05' W 123°01'0 0.0
2017-May-24 16:00N 48°05' W 123°01'0 0.0
2017-May-24 15:30N 48°05' W 123°01'1 1.8
2017-May-24 15:01N 48°04' W 123°02'0 0.5
2017-May-24 14:30N 48°04' W 123°02'0 0.0
2017-May-23 22:15N 48°04' W 123°02'1 4.2
2017-May-23 22:00N 48°03' W 123°01'1 1.8
2017-May-23 21:30N 48°04' W 123°02'0 0.9
2017-May-23 21:00N 48°04' W 123°02'0 1.0
2017-May-23 20:31N 48°03' W 123°02'0 0.5
2017-May-23 20:00N 48°03' W 123°02'0 0.8
2017-May-23 19:25N 48°03' W 123°02'1 2.2
2017-May-23 19:00N 48°03' W 123°02'1 2.3
2017-May-23 18:30N 48°04' W 123°01'1 1.5
2017-May-23 18:00N 48°04' W 123°01'1 1.0
2017-May-23 17:29N 48°05' W 123°01'0 0.5
2017-May-23 17:00N 48°05' W 123°02'0 0.5
2017-May-23 16:30N 48°04' W 123°02'0 0.4
2017-May-23 16:00N 48°04' W 123°02'1 1.3
2017-May-23 15:30N 48°04' W 123°02'0 0.2
2017-May-23 15:00N 48°04' W 123°02'0 0.4
2017-May-23 14:31N 48°04' W 123°02'0 0.0
2017-May-23 02:07N 48°04' W 123°02'0 0.3
2017-May-23 01:59N 48°04' W 123°02'1 0.2
2017-May-22 20:40N 48°05' W 123°03'0 0.0
2017-May-22 20:22N 48°05' W 123°03'0 0.0
2017-May-22 18:15N 48°05' W 123°03'0 0.0
2017-May-22 17:57N 48°05' W 123°03'0 0.0
2017-May-22 17:29N 48°05' W 123°03'0 0.0
2017-May-22 16:53N 48°05' W 123°03'0 0.0
2017-May-22 16:22N 48°05' W 123°03'0 0.0
2017-May-22 15:58N 48°05' W 123°03'0 0.0
2017-May-22 14:58N 48°05' W 123°03'8 8.1
2017-May-22 13:59N 48°08' W 122°52'16 1.3
2017-May-22 01:56N 47°57' W 122°35'410.0
2017-May-22 01:30N 47°55' W 122°31'5 9.1
2017-May-22 01:00N 47°51' W 122°27'4 8.5
2017-May-22 00:30N 47°47' W 122°26'4 8.3
2017-May-22 00:00N 47°42' W 122°25'3 5.2
2017-May-21 23:30N 47°40' W 122°24'0 0.4
2017-May-21 23:01N 47°40' W 122°24'3 5.6
2017-May-21 22:30N 47°39' W 122°20'0 0.0
2017-May-19 21:45N 47°39' W 122°19'0 0.3
2017-May-19 21:31N 47°39' W 122°19'3 5.6
2017-May-19 21:01N 47°40' W 122°23'2 4.1
2017-May-19 20:30N 47°41' W 122°25'4 8.3
2017-May-19 20:00N 47°46' W 122°25'4 8.7
2017-May-19 19:30N 47°50' W 122°26'4 8.5
2017-May-19 19:00N 47°54' W 122°27'4 8.7
2017-May-19 18:30N 47°57' W 122°32'0 0.1
2017-May-19 14:00N 47°57' W 122°32'4 8.5
2017-May-19 13:30N 47°54' W 122°28'4 8.7
2017-May-19 13:00N 47°50' W 122°26'4 8.9
2017-May-19 12:30N 47°45' W 122°25'4 8.6
2017-May-19 12:00N 47°41' W 122°25'2 4.9
2017-May-19 11:30N 47°40' W 122°22'2 4.3
2017-May-19 11:00N 47°39' W 122°19'  
Track history (hours):
 
Tides and Currents Weather Stations Pressure Air Temp Water Temp Dewpoint Dewpoint Depression Visibility Wind Speed Wind Dir Waves Ship Positions

Oceanographic research ship Jack Robertson (United States)

Owner: University of Washington Applied Physics Laboratory, Seattle, WA. More information available from US FCC via Universal Licensing System and Coast Guard Vessel Documentation Center.

Last reported at 2017-May-27 09:48 UTC. Time now 2017-May-27 17:33 UTC.
Position N 47°39' W 122°19'.

; draft 1.7 m.

Type: Other ship. MMSI: 367374350.

Date/timePositionNaut miles runAvg speedWind from/ knotsBaromVisibWave heightAir tempDewpointWater temp
2017-May-27 09:48N 47°39' W 122°19'1 2.2
2017-May-27 09:30N 47°39' W 122°20'3 5.9
2017-May-27 09:00N 47°40' W 122°24'3 6.6
2017-May-27 08:30N 47°43' W 122°26'4 8.5
2017-May-27 08:00N 47°47' W 122°28'4 8.3
2017-May-27 07:30N 47°51' W 122°29'4 8.2
2017-May-27 07:00N 47°55' W 122°31'4 7.3
2017-May-27 06:29N 47°57' W 122°36'9 7.5
2017-May-27 05:19N 48°06' W 122°41'2 5.8
2017-May-27 04:57N 48°07' W 122°43'4 8.3
2017-May-27 04:25N 48°09' W 122°49'10 2.9
2017-May-27 00:58N 48°04' W 123°02'1 1.7
2017-May-27 00:28N 48°04' W 123°01'1 1.6
2017-May-26 23:59N 48°05' W 123°02'1 1.3
2017-May-26 23:21N 48°04' W 123°02'0 0.4
2017-May-26 22:57N 48°04' W 123°02'1 2.5
2017-May-26 22:29N 48°04' W 123°01'1 1.0
2017-May-26 22:00N 48°04' W 123°01'0 0.5
2017-May-26 21:30N 48°04' W 123°01'0 0.6
2017-May-26 21:00N 48°04' W 123°01'0 0.8
2017-May-26 20:31N 48°04' W 123°01'0 0.6
2017-May-26 20:00N 48°04' W 123°01'0 0.6
2017-May-26 19:30N 48°05' W 123°02'0 0.3
2017-May-26 19:00N 48°05' W 123°02'0 0.6
2017-May-26 18:30N 48°04' W 123°02'0 0.6
2017-May-26 17:59N 48°04' W 123°02'0 0.9
2017-May-26 17:30N 48°04' W 123°02'1 1.0
2017-May-26 17:00N 48°03' W 123°02'1 1.2
2017-May-26 16:30N 48°03' W 123°01'0 0.8
2017-May-26 16:00N 48°03' W 123°01'1 2.6
2017-May-26 15:30N 48°04' W 123°02'0 0.8
2017-May-26 15:00N 48°04' W 123°02'0 0.3
2017-May-26 14:30N 48°04' W 123°02'0 0.0
2017-May-26 01:42N 48°04' W 123°02'1 3.1
2017-May-26 01:30N 48°04' W 123°02'1 1.1
2017-May-26 01:00N 48°04' W 123°01'0 1.0
2017-May-26 00:30N 48°04' W 123°01'2 2.9
2017-May-25 23:59N 48°03' W 123°01'0 0.7
2017-May-25 23:30N 48°03' W 123°01'0 0.1
2017-May-25 23:00N 48°03' W 123°01'0 0.5
2017-May-25 22:22N 48°04' W 123°01'0 0.9
2017-May-25 22:00N 48°04' W 123°01'0 0.8
2017-May-25 21:30N 48°04' W 123°01'0 0.7
2017-May-25 20:59N 48°04' W 123°02'0 0.9
2017-May-25 20:30N 48°04' W 123°02'0 0.1
2017-May-25 20:00N 48°04' W 123°02'0 0.7
2017-May-25 19:30N 48°04' W 123°02'0 0.4
2017-May-25 18:53N 48°04' W 123°01'0 1.1
2017-May-25 18:29N 48°04' W 123°02'0 1.0
2017-May-25 17:59N 48°05' W 123°02'2 4.1
2017-May-25 17:31N 48°03' W 123°01'0 0.4
2017-May-25 17:01N 48°03' W 123°01'0 0.9
2017-May-25 16:30N 48°03' W 123°02'0 0.9
2017-May-25 16:00N 48°03' W 123°02'0 0.4
2017-May-25 15:30N 48°03' W 123°01'0 0.0
2017-May-25 15:00N 48°03' W 123°01'0 0.3
2017-May-25 14:30N 48°03' W 123°01'1 0.1
2017-May-25 04:23N 48°04' W 123°02'1 2.3
2017-May-25 04:00N 48°03' W 123°02'1 1.0
2017-May-25 03:28N 48°04' W 123°02'0 0.1
2017-May-25 02:58N 48°04' W 123°02'0 0.6
2017-May-25 02:28N 48°03' W 123°02'1 2.2
2017-May-25 02:00N 48°03' W 123°01'1 2.4
2017-May-25 01:30N 48°04' W 123°01'1 0.2
2017-May-24 20:33N 48°04' W 123°02'0 0.0
2017-May-24 18:24N 48°04' W 123°02'0 0.1
2017-May-24 18:00N 48°04' W 123°02'1 1.8
2017-May-24 17:30N 48°05' W 123°01'0 0.0
2017-May-24 17:00N 48°05' W 123°01'0 0.0
2017-May-24 16:30N 48°05' W 123°01'0 0.0
2017-May-24 16:00N 48°05' W 123°01'0 0.0
2017-May-24 15:30N 48°05' W 123°01'1 1.8
2017-May-24 15:01N 48°04' W 123°02'0 0.5
2017-May-24 14:30N 48°04' W 123°02'0 0.0
2017-May-23 22:15N 48°04' W 123°02'1 4.2
2017-May-23 22:00N 48°03' W 123°01'1 1.8
2017-May-23 21:30N 48°04' W 123°02'0 0.9
2017-May-23 21:00N 48°04' W 123°02'0 1.0
2017-May-23 20:31N 48°03' W 123°02'0 0.5
2017-May-23 20:00N 48°03' W 123°02'0 0.8
2017-May-23 19:25N 48°03' W 123°02'1 2.2
2017-May-23 19:00N 48°03' W 123°02'1 2.3
2017-May-23 18:30N 48°04' W 123°01'1 1.5
2017-May-23 18:00N 48°04' W 123°01'1 1.0
2017-May-23 17:29N 48°05' W 123°01'0 0.5
2017-May-23 17:00N 48°05' W 123°02'0 0.5
2017-May-23 16:30N 48°04' W 123°02'0 0.4
2017-May-23 16:00N 48°04' W 123°02'1 1.3
2017-May-23 15:30N 48°04' W 123°02'0 0.2
2017-May-23 15:00N 48°04' W 123°02'0 0.4
2017-May-23 14:31N 48°04' W 123°02'0 0.0
2017-May-23 02:07N 48°04' W 123°02'0 0.3
2017-May-23 01:59N 48°04' W 123°02'1 0.2
2017-May-22 20:40N 48°05' W 123°03'0 0.0
2017-May-22 20:22N 48°05' W 123°03'0 0.0
2017-May-22 18:15N 48°05' W 123°03'0 0.0
2017-May-22 17:57N 48°05' W 123°03'0 0.0
2017-May-22 17:29N 48°05' W 123°03'0 0.0
2017-May-22 16:53N 48°05' W 123°03'0 0.0
2017-May-22 16:22N 48°05' W 123°03'0 0.0
2017-May-22 15:58N 48°05' W 123°03'0 0.0
2017-May-22 14:58N 48°05' W 123°03'8 8.1
2017-May-22 13:59N 48°08' W 122°52'16 1.3
2017-May-22 01:56N 47°57' W 122°35'410.0
2017-May-22 01:30N 47°55' W 122°31'5 9.1
2017-May-22 01:00N 47°51' W 122°27'4 8.5
2017-May-22 00:30N 47°47' W 122°26'4 8.3
2017-May-22 00:00N 47°42' W 122°25'3 5.2
2017-May-21 23:30N 47°40' W 122°24'0 0.4
2017-May-21 23:01N 47°40' W 122°24'3 5.6
2017-May-21 22:30N 47°39' W 122°20'0 0.0
2017-May-19 21:45N 47°39' W 122°19'0 0.3
2017-May-19 21:31N 47°39' W 122°19'3 5.6
2017-May-19 21:01N 47°40' W 122°23'2 4.1
2017-May-19 20:30N 47°41' W 122°25'4 8.3
2017-May-19 20:00N 47°46' W 122°25'4 8.7
2017-May-19 19:30N 47°50' W 122°26'4 8.5
2017-May-19 19:00N 47°54' W 122°27'4 8.7
2017-May-19 18:30N 47°57' W 122°32'0 0.1
2017-May-19 14:00N 47°57' W 122°32'4 8.5
2017-May-19 13:30N 47°54' W 122°28'4 8.7
2017-May-19 13:00N 47°50' W 122°26'4 8.9
2017-May-19 12:30N 47°45' W 122°25'4 8.6
2017-May-19 12:00N 47°41' W 122°25'2 4.9
2017-May-19 11:30N 47°40' W 122°22'2 4.3
2017-May-19 11:00N 47°39' W 122°19'  

Dump ship's entire track history